Time;durP1;ratioP1;P1;durP2;ratioP2;P2;SDS_P1;SDS_P2;PMS_P1;PMS_P2;Temp;Humidity;BMP_temperature;BMP_pressure;BME280_temperature;BME280_humidity;BME280_pressure;Samples;Min_cycle;Max_cycle;Signal;HPM_P1;HPM_P2
2023/05/09 00:01:40;;;;;;;0.90;0.90;;;20.70;58.70;;;;;;5059375;28;45371;-63
2023/05/09 00:04:07;;;;;;;0.90;0.90;;;20.70;58.80;;;;;;5067783;28;46371;-63
2023/05/09 00:06:34;;;;;;;0.95;0.90;;;20.70;58.80;;;;;;5067684;28;45349;-63
2023/05/09 00:09:01;;;;;;;1.15;0.75;;;20.70;58.70;;;;;;5067950;28;45299;-64
2023/05/09 00:11:29;;;;;;;1.55;0.90;;;20.70;58.70;;;;;;5067926;28;45396;-63
2023/05/09 00:13:56;;;;;;;0.90;0.90;;;20.70;58.70;;;;;;5067638;28;45425;-63
2023/05/09 00:16:23;;;;;;;1.63;0.85;;;20.70;58.80;;;;;;5067637;28;45496;-64
2023/05/09 00:18:50;;;;;;;1.00;1.00;;;20.60;58.70;;;;;;5067668;28;45340;-63
2023/05/09 00:21:17;;;;;;;0.80;0.80;;;20.60;58.70;;;;;;5067640;28;45554;-63
2023/05/09 00:23:44;;;;;;;0.80;0.80;;;20.60;58.70;;;;;;5067474;28;45513;-63
2023/05/09 00:26:11;;;;;;;0.95;0.90;;;20.60;58.70;;;;;;5067534;28;45342;-63
2023/05/09 00:28:39;;;;;;;0.95;0.93;;;20.60;58.70;;;;;;5067436;28;45336;-63
2023/05/09 00:31:06;;;;;;;0.95;0.93;;;20.60;58.70;;;;;;5067733;28;45405;-63
2023/05/09 00:33:32;;;;;;;0.90;0.90;;;20.60;58.70;;;;;;5067337;28;45468;-63
2023/05/09 00:35:59;;;;;;;0.98;0.80;;;20.60;58.70;;;;;;5067171;28;45252;-63
2023/05/09 00:38:27;;;;;;;1.08;0.75;;;20.60;58.70;;;;;;5067397;28;45321;-63
2023/05/09 00:40:53;;;;;;;0.80;0.80;;;20.60;58.70;;;;;;5067427;28;45364;-64
2023/05/09 00:43:21;;;;;;;0.82;0.70;;;20.60;58.70;;;;;;5066994;28;45509;-63
2023/05/09 00:45:49;;;;;;;0.90;0.90;;;20.50;58.70;;;;;;5067181;28;45386;-63
2023/05/09 00:48:16;;;;;;;0.75;0.75;;;20.50;58.70;;;;;;5067390;28;45475;-63
2023/05/09 00:50:42;;;;;;;2.53;1.13;;;20.50;58.80;;;;;;5067188;28;45439;-64
2023/05/09 00:53:09;;;;;;;0.80;0.80;;;20.50;58.70;;;;;;5066737;28;45275;-63
2023/05/09 00:55:36;;;;;;;1.98;0.90;;;20.50;58.70;;;;;;5066995;28;45328;-64
2023/05/09 00:58:03;;;;;;;0.70;0.70;;;20.50;58.70;;;;;;5067004;28;45127;-63
2023/05/09 01:00:30;;;;;;;0.90;0.90;;;20.50;58.70;;;;;;5067269;28;45298;-63
2023/05/09 01:02:58;;;;;;;1.10;1.10;;;20.50;58.70;;;;;;5066406;28;46704;-64
2023/05/09 01:05:27;;;;;;;0.95;0.70;;;20.50;58.70;;;;;;5066706;28;45329;-63
2023/05/09 01:07:57;;;;;;;0.80;0.80;;;20.50;58.70;;;;;;5066822;28;45309;-64
2023/05/09 01:10:29;;;;;;;0.70;0.70;;;20.50;58.70;;;;;;5066976;28;45346;-64
2023/05/09 01:13:00;;;;;;;0.65;0.65;;;20.40;58.60;;;;;;5065989;28;46405;-64
2023/05/09 01:15:31;;;;;;;1.08;0.90;;;20.40;58.60;;;;;;5066572;28;45229;-63
2023/05/09 01:18:01;;;;;;;0.90;0.90;;;20.40;58.60;;;;;;5066646;28;45318;-64
2023/05/09 01:20:33;;;;;;;0.80;0.80;;;20.40;58.60;;;;;;5066913;28;45247;-64
2023/05/09 01:23:05;;;;;;;0.80;0.80;;;20.40;58.60;;;;;;5066305;28;46797;-64
2023/05/09 01:25:37;;;;;;;1.65;0.70;;;20.40;58.60;;;;;;5066429;28;45498;-65
2023/05/09 01:28:09;;;;;;;1.23;0.85;;;20.40;58.70;;;;;;5066215;28;45262;-65
2023/05/09 01:30:37;;;;;;;0.80;0.80;;;20.40;58.60;;;;;;5066656;28;45307;-65
2023/05/09 01:33:06;;;;;;;0.80;0.80;;;20.40;58.60;;;;;;5066225;28;46406;-65
2023/05/09 01:35:33;;;;;;;0.70;0.70;;;20.30;58.60;;;;;;5066439;28;45412;-65
2023/05/09 01:38:00;;;;;;;0.70;0.70;;;20.30;58.60;;;;;;5066462;28;45327;-64
2023/05/09 01:40:27;;;;;;;0.80;0.80;;;20.30;58.70;;;;;;5066500;28;45326;-65
2023/05/09 01:42:56;;;;;;;0.77;0.77;;;20.30;58.60;;;;;;5065977;28;45263;-64
2023/05/09 01:45:23;;;;;;;0.88;0.88;;;20.30;58.60;;;;;;5066162;28;45376;-64
2023/05/09 01:47:51;;;;;;;0.90;0.90;;;20.30;58.70;;;;;;5066569;28;45250;-64
2023/05/09 01:50:18;;;;;;;0.60;0.60;;;20.30;58.60;;;;;;5066350;28;45487;-64
2023/05/09 01:52:47;;;;;;;2.58;0.95;;;20.30;58.60;;;;;;5065953;28;45452;-64
2023/05/09 01:55:15;;;;;;;1.00;1.00;;;20.30;58.60;;;;;;5065993;28;45353;-64
2023/05/09 01:57:42;;;;;;;0.80;0.80;;;20.20;58.60;;;;;;5066247;28;45282;-64
2023/05/09 02:00:11;;;;;;;0.88;0.88;;;20.30;58.60;;;;;;5066248;28;45324;-64
2023/05/09 02:02:38;;;;;;;0.82;0.82;;;20.20;58.50;;;;;;5065610;28;45313;-64
2023/05/09 02:05:08;;;;;;;1.40;0.80;;;20.30;58.60;;;;;;5066022;28;45277;-64
2023/05/09 02:07:35;;;;;;;0.90;0.90;;;20.20;58.60;;;;;;5066095;28;45322;-64
2023/05/09 02:10:02;;;;;;;0.90;0.90;;;20.20;58.60;;;;;;5066114;28;45301;-64
2023/05/09 02:12:28;;;;;;;1.00;1.00;;;20.20;58.60;;;;;;5065683;28;45322;-64
2023/05/09 02:14:55;;;;;;;0.70;0.70;;;20.20;58.60;;;;;;5065621;28;45268;-64
2023/05/09 02:17:22;;;;;;;0.60;0.60;;;20.20;58.50;;;;;;5063205;28;45266;-64
2023/05/09 02:19:49;;;;;;;0.77;0.77;;;20.20;58.50;;;;;;5065951;28;45321;-63
2023/05/09 02:22:17;;;;;;;1.10;1.00;;;20.20;58.50;;;;;;5065385;28;47276;-64
2023/05/09 02:24:44;;;;;;;0.90;0.90;;;20.20;58.60;;;;;;5065455;28;45324;-64
2023/05/09 02:27:11;;;;;;;1.10;0.93;;;20.10;58.50;;;;;;5065532;28;45313;-63
2023/05/09 02:29:44;;;;;;;0.70;0.70;;;20.10;58.60;;;;;;5065902;28;45435;-64
2023/05/09 02:32:12;;;;;;;1.10;1.05;;;20.10;58.50;;;;;;5065519;28;46403;-63
2023/05/09 02:34:39;;;;;;;0.80;0.80;;;20.10;58.50;;;;;;5065478;28;45341;-63
2023/05/09 02:37:06;;;;;;;0.90;0.90;;;20.10;58.60;;;;;;5065513;28;45269;-63
2023/05/09 02:39:34;;;;;;;0.80;0.80;;;20.10;58.50;;;;;;5065735;28;45401;-64
2023/05/09 02:42:05;;;;;;;0.90;0.90;;;20.10;58.50;;;;;;5065153;28;45278;-64
2023/05/09 02:44:32;;;;;;;2.25;1.02;;;20.10;58.60;;;;;;5065245;28;45452;-64
2023/05/09 02:46:59;;;;;;;0.90;0.80;;;20.10;58.50;;;;;;5065519;28;45481;-64
2023/05/09 02:49:26;;;;;;;0.70;0.70;;;20.00;58.50;;;;;;5065594;28;45405;-64
2023/05/09 02:51:53;;;;;;;1.00;0.90;;;20.00;58.40;;;;;;5062400;28;46286;-64
2023/05/09 02:54:20;;;;;;;0.80;0.80;;;20.00;58.50;;;;;;5065179;28;45157;-65
2023/05/09 02:56:48;;;;;;;0.70;0.70;;;20.00;58.40;;;;;;5065333;28;45418;-64
2023/05/09 02:59:15;;;;;;;1.13;1.13;;;20.00;58.50;;;;;;5062859;28;45361;-65
2023/05/09 03:01:42;;;;;;;0.80;0.80;;;20.00;58.40;;;;;;5065105;28;45312;-64
2023/05/09 03:04:09;;;;;;;0.60;0.60;;;20.00;58.40;;;;;;5065221;28;45313;-64
2023/05/09 03:06:36;;;;;;;0.68;0.68;;;20.00;58.40;;;;;;5065336;28;45181;-64
2023/05/09 03:09:03;;;;;;;1.65;1.10;;;19.90;58.40;;;;;;5065501;28;45341;-64
2023/05/09 03:11:29;;;;;;;0.90;0.90;;;19.90;58.50;;;;;;5064871;28;45430;-65
2023/05/09 03:13:58;;;;;;;0.75;0.70;;;19.90;58.40;;;;;;5064997;28;45248;-65
2023/05/09 03:16:24;;;;;;;0.70;0.70;;;19.90;58.40;;;;;;5064966;28;45277;-65
2023/05/09 03:18:51;;;;;;;0.73;0.73;;;19.90;58.40;;;;;;5065197;28;45321;-63
2023/05/09 03:21:18;;;;;;;1.10;1.00;;;19.90;58.40;;;;;;5064699;28;45382;-65
2023/05/09 03:23:45;;;;;;;1.65;0.80;;;19.90;58.40;;;;;;5064782;28;45314;-66
2023/05/09 03:26:11;;;;;;;0.80;0.80;;;19.90;58.40;;;;;;5064958;28;45312;-65
2023/05/09 03:28:38;;;;;;;0.80;0.77;;;19.80;58.50;;;;;;5056574;28;45315;-65
2023/05/09 03:31:06;;;;;;;0.82;0.82;;;19.80;58.40;;;;;;5064488;28;47337;-66
2023/05/09 03:33:33;;;;;;;0.60;0.60;;;19.80;58.40;;;;;;5064921;28;45320;-65
2023/05/09 03:36:00;;;;;;;0.90;0.90;;;19.80;58.40;;;;;;5064919;28;45349;-65
2023/05/09 03:38:27;;;;;;;1.02;0.88;;;19.80;58.40;;;;;;5068141;28;45296;-65
2023/05/09 03:40:54;;;;;;;1.33;0.77;;;19.80;58.40;;;;;;5068069;28;46263;-65
2023/05/09 03:43:20;;;;;;;0.70;0.70;;;19.80;58.30;;;;;;5068113;28;45257;-65
2023/05/09 03:45:47;;;;;;;1.88;1.10;;;19.80;58.40;;;;;;5068264;28;45368;-65
2023/05/09 03:48:15;;;;;;;0.70;0.70;;;19.70;58.30;;;;;;5068200;28;45388;-65
2023/05/09 03:50:42;;;;;;;1.10;0.90;;;19.70;58.40;;;;;;5067829;28;46303;-65
2023/05/09 03:53:09;;;;;;;0.60;0.60;;;19.70;58.40;;;;;;5067812;28;45319;-65
2023/05/09 03:55:36;;;;;;;2.45;0.82;;;19.70;58.40;;;;;;5067912;28;45313;-65
2023/05/09 03:58:03;;;;;;;0.90;0.90;;;19.70;58.30;;;;;;5068322;28;45296;-65
2023/05/09 04:00:29;;;;;;;0.98;0.85;;;19.70;58.30;;;;;;5067637;28;46676;-65
2023/05/09 04:02:56;;;;;;;0.80;0.80;;;19.70;58.30;;;;;;5067566;28;45352;-64
2023/05/09 04:05:25;;;;;;;0.75;0.70;;;19.70;58.30;;;;;;5067895;28;45284;-65
2023/05/09 04:07:52;;;;;;;1.02;1.00;;;19.70;58.30;;;;;;5067935;28;45491;-65
2023/05/09 04:10:19;;;;;;;1.17;0.93;;;19.70;58.20;;;;;;5067438;28;46368;-64
2023/05/09 04:12:46;;;;;;;0.77;0.70;;;19.70;58.20;;;;;;5067609;28;45678;-64
2023/05/09 04:15:13;;;;;;;1.42;0.80;;;19.70;58.20;;;;;;5067670;28;45255;-64
2023/05/09 04:17:39;;;;;;;0.90;0.90;;;19.70;58.20;;;;;;5067763;28;45307;-63
2023/05/09 04:20:07;;;;;;;0.60;0.60;;;19.70;58.20;;;;;;5067350;28;45312;-66
2023/05/09 04:22:36;;;;;;;0.73;0.73;;;19.70;58.20;;;;;;5067227;28;45372;-66
2023/05/09 04:25:03;;;;;;;0.95;0.80;;;19.70;58.10;;;;;;5067611;28;45304;-65
2023/05/09 04:27:30;;;;;;;0.70;0.70;;;19.70;58.10;;;;;;5067330;28;45595;-66
2023/05/09 04:29:57;;;;;;;0.73;0.73;;;19.70;58.10;;;;;;5067261;28;45460;-65
2023/05/09 04:32:24;;;;;;;2.40;0.98;;;19.70;58.10;;;;;;5067308;28;45322;-66
2023/05/09 04:34:51;;;;;;;0.80;0.70;;;19.70;58.10;;;;;;5067598;28;45341;-65
2023/05/09 04:37:18;;;;;;;0.70;0.70;;;19.70;58.10;;;;;;5067575;28;45266;-66
2023/05/09 04:39:46;;;;;;;0.75;0.75;;;19.70;58.10;;;;;;5067085;28;46470;-65
2023/05/09 04:42:13;;;;;;;0.75;0.75;;;19.70;58.10;;;;;;5067005;28;45392;-65
2023/05/09 04:44:39;;;;;;;0.80;0.80;;;19.70;58.00;;;;;;5067227;28;45324;-64
2023/05/09 04:47:06;;;;;;;0.85;0.85;;;19.70;58.00;;;;;;5067224;28;45483;-65
2023/05/09 04:49:33;;;;;;;0.85;0.85;;;19.70;58.00;;;;;;5065718;28;46691;-64
2023/05/09 04:52:00;;;;;;;0.90;0.90;;;19.70;58.00;;;;;;5066934;28;45246;-64
2023/05/09 04:54:27;;;;;;;0.80;0.80;;;19.70;58.00;;;;;;5067114;28;45357;-65
2023/05/09 04:56:55;;;;;;;0.75;0.75;;;19.70;57.90;;;;;;5067069;28;45361;-65
2023/05/09 04:59:21;;;;;;;0.82;0.82;;;19.70;57.90;;;;;;5066784;28;45379;-63
2023/05/09 05:01:48;;;;;;;0.90;0.90;;;19.70;57.90;;;;;;5066720;28;45270;-66
2023/05/09 05:04:15;;;;;;;0.70;0.70;;;19.70;57.90;;;;;;5066886;28;45289;-66
2023/05/09 05:06:42;;;;;;;1.85;0.70;;;19.70;58.00;;;;;;5066952;28;45424;-63
2023/05/09 05:09:09;;;;;;;0.98;0.80;;;19.70;57.90;;;;;;5066621;28;46794;-63
2023/05/09 05:11:36;;;;;;;1.77;0.98;;;19.70;57.90;;;;;;5066520;28;45459;-66
2023/05/09 05:14:04;;;;;;;1.73;0.70;;;19.60;57.90;;;;;;5066759;28;45326;-65
2023/05/09 05:16:31;;;;;;;1.10;0.70;;;19.70;57.90;;;;;;5067085;28;45320;-63
2023/05/09 05:18:57;;;;;;;0.85;0.80;;;19.70;57.90;;;;;;5066483;28;46401;-64
2023/05/09 05:21:24;;;;;;;1.27;0.90;;;19.70;58.20;;;;;;5066283;28;45333;-63
2023/05/09 05:23:51;;;;;;;0.70;0.70;;;19.70;58.00;;;;;;5066563;28;45285;-65
2023/05/09 05:26:18;;;;;;;2.58;0.90;;;19.70;57.90;;;;;;5066683;28;45183;-66
2023/05/09 05:28:45;;;;;;;0.73;0.73;;;19.60;57.90;;;;;;5065986;28;45258;-65
2023/05/09 05:31:13;;;;;;;0.88;0.80;;;19.60;57.90;;;;;;5066242;28;45310;-65
2023/05/09 05:33:40;;;;;;;0.90;0.82;;;19.70;58.00;;;;;;5066741;28;45432;-65
2023/05/09 05:36:07;;;;;;;0.77;0.70;;;19.70;57.90;;;;;;5066477;28;45357;-65
2023/05/09 05:38:34;;;;;;;0.70;0.70;;;19.70;57.90;;;;;;5066420;28;45297;-65
2023/05/09 05:41:00;;;;;;;0.73;0.70;;;19.70;57.90;;;;;;5066133;28;45248;-66
2023/05/09 05:43:27;;;;;;;0.70;0.70;;;19.70;57.90;;;;;;5066154;28;45371;-66
2023/05/09 05:45:55;;;;;;;0.80;0.80;;;19.60;57.90;;;;;;5066320;28;45258;-64
2023/05/09 05:48:23;;;;;;;1.35;0.93;;;19.70;57.90;;;;;;5065901;28;48564;-66
2023/05/09 05:50:49;;;;;;;0.90;0.90;;;19.70;57.90;;;;;;5066088;28;45323;-65
2023/05/09 05:53:17;;;;;;;2.10;0.82;;;19.70;57.80;;;;;;5066059;28;45336;-65
2023/05/09 05:55:44;;;;;;;0.80;0.80;;;19.70;57.90;;;;;;5066211;28;45463;-66
2023/05/09 05:58:11;;;;;;;1.88;0.88;;;19.70;57.80;;;;;;5065877;28;45465;-65
2023/05/09 06:00:38;;;;;;;1.75;1.00;;;19.70;57.80;;;;;;5063011;28;45345;-65
2023/05/09 06:03:05;;;;;;;0.82;0.82;;;19.70;57.80;;;;;;5065827;28;45242;-64
2023/05/09 06:05:33;;;;;;;0.70;0.70;;;19.70;57.80;;;;;;5066075;28;45254;-65
2023/05/09 06:08:00;;;;;;;1.85;0.98;;;19.70;57.70;;;;;;5065678;28;46757;-64
2023/05/09 06:10:26;;;;;;;0.77;0.77;;;19.80;57.80;;;;;;5065843;28;45270;-66
2023/05/09 06:12:53;;;;;;;1.17;1.08;;;19.70;57.70;;;;;;5065821;28;45238;-63
2023/05/09 06:15:20;;;;;;;0.80;0.80;;;19.80;57.80;;;;;;5065934;28;45242;-66
2023/05/09 06:17:47;;;;;;;0.85;0.77;;;19.80;57.80;;;;;;5065565;28;47309;-64
2023/05/09 06:20:13;;;;;;;0.93;0.90;;;19.80;57.80;;;;;;5065688;28;45337;-65
2023/05/09 06:22:41;;;;;;;1.40;1.30;;;19.80;57.80;;;;;;5065599;28;45339;-65
2023/05/09 06:25:09;;;;;;;0.90;0.90;;;19.80;57.80;;;;;;5063296;28;45341;-64
2023/05/09 06:27:36;;;;;;;1.15;0.80;;;19.80;57.80;;;;;;5065100;28;46401;-64
2023/05/09 06:30:03;;;;;;;0.85;0.80;;;19.80;57.80;;;;;;5065422;28;45400;-64
2023/05/09 06:32:30;;;;;;;2.90;0.90;;;19.80;57.80;;;;;;5065520;28;45408;-64
2023/05/09 06:34:56;;;;;;;0.85;0.73;;;19.80;57.80;;;;;;5065564;28;45438;-65
2023/05/09 06:37:23;;;;;;;0.98;0.98;;;19.80;57.90;;;;;;5065304;28;46382;-65
2023/05/09 06:39:51;;;;;;;1.17;1.05;;;19.80;57.80;;;;;;5065471;28;45250;-63
2023/05/09 06:42:18;;;;;;;2.67;0.88;;;19.90;57.90;;;;;;5065380;28;45638;-64
2023/05/09 06:44:45;;;;;;;2.05;0.80;;;19.80;57.80;;;;;;5065640;28;45434;-65
2023/05/09 06:47:12;;;;;;;1.15;1.05;;;19.80;57.80;;;;;;5065179;28;45440;-65
2023/05/09 06:49:38;;;;;;;1.17;0.90;;;19.90;57.80;;;;;;5065323;28;45301;-63
2023/05/09 06:52:05;;;;;;;0.60;0.60;;;19.90;57.90;;;;;;5065388;28;45274;-65
2023/05/09 06:54:32;;;;;;;0.85;0.85;;;19.90;57.80;;;;;;5065610;28;45456;-64
2023/05/09 06:57:00;;;;;;;2.70;0.90;;;19.90;57.80;;;;;;5065112;28;46402;-64
2023/05/09 06:59:27;;;;;;;2.35;0.90;;;19.90;57.80;;;;;;5065172;28;45295;-65
2023/05/09 07:01:54;;;;;;;1.20;1.00;;;19.90;57.80;;;;;;5064862;28;45354;-64
2023/05/09 07:04:21;;;;;;;3.53;1.02;;;19.90;57.80;;;;;;5065448;28;45587;-63
2023/05/09 07:06:48;;;;;;;1.00;0.95;;;20.00;57.70;;;;;;5064845;28;46369;-65
2023/05/09 07:09:16;;;;;;;3.10;1.00;;;20.00;57.80;;;;;;5064948;28;45380;-63
2023/05/09 07:11:44;;;;;;;2.78;1.10;;;20.00;57.80;;;;;;5065606;28;45462;-65
2023/05/09 07:14:12;;;;;;;1.50;1.40;;;20.00;57.80;;;;;;5068876;28;45373;-65
2023/05/09 07:16:39;;;;;;;1.33;1.23;;;20.00;57.80;;;;;;5068392;28;45301;-65
2023/05/09 07:19:06;;;;;;;1.23;1.10;;;20.00;57.80;;;;;;5068378;28;45310;-65
2023/05/09 07:21:33;;;;;;;1.55;1.25;;;20.00;57.70;;;;;;5068447;28;45444;-64
2023/05/09 07:23:59;;;;;;;1.30;1.20;;;20.00;57.70;;;;;;5068985;28;45403;-64
2023/05/09 07:26:26;;;;;;;1.20;1.10;;;20.00;57.70;;;;;;5068114;28;46394;-64
2023/05/09 07:28:53;;;;;;;1.35;1.20;;;20.10;57.70;;;;;;5068220;28;45361;-64
2023/05/09 07:31:21;;;;;;;2.88;1.58;;;20.10;57.60;;;;;;5068301;28;45535;-64
2023/05/09 07:33:48;;;;;;;1.30;1.20;;;20.10;57.60;;;;;;5068534;28;45219;-64
2023/05/09 07:36:15;;;;;;;2.30;1.50;;;20.10;57.50;;;;;;5068148;28;46419;-64
2023/05/09 07:38:42;;;;;;;1.52;1.42;;;20.10;57.50;;;;;;5068313;28;45307;-64
2023/05/09 07:41:10;;;;;;;1.50;1.40;;;20.10;57.40;;;;;;5068250;28;45311;-64
2023/05/09 07:43:36;;;;;;;1.40;1.30;;;20.10;57.40;;;;;;5068188;28;45486;-63
2023/05/09 07:46:03;;;;;;;1.58;1.48;;;20.10;57.40;;;;;;5068041;28;46413;-66
2023/05/09 07:48:31;;;;;;;3.10;1.60;;;20.10;57.40;;;;;;5068216;28;45597;-65
2023/05/09 07:50:58;;;;;;;3.53;1.30;;;20.10;57.30;;;;;;5068009;28;45348;-63
2023/05/09 07:53:25;;;;;;;1.73;1.42;;;20.10;57.20;;;;;;5068319;28;45452;-63
2023/05/09 07:55:52;;;;;;;1.30;1.20;;;20.20;57.20;;;;;;5067491;28;45359;-63
2023/05/09 07:58:19;;;;;;;3.30;1.40;;;20.20;57.20;;;;;;5067630;28;45447;-64
2023/05/09 08:00:46;;;;;;;1.63;1.52;;;20.20;57.30;;;;;;5066880;28;45266;-64
2023/05/09 08:03:13;;;;;;;1.00;1.00;;;20.20;57.40;;;;;;5066965;28;45475;-64
2023/05/09 08:05:41;;;;;;;1.35;1.20;;;20.20;57.40;;;;;;5067537;28;45577;-64
2023/05/09 08:08:08;;;;;;;0.95;0.95;;;20.30;57.30;;;;;;5067769;28;45365;-64
2023/05/09 08:10:35;;;;;;;1.15;1.08;;;20.30;57.40;;;;;;5063785;28;45413;-63
2023/05/09 08:13:01;;;;;;;1.33;1.23;;;20.30;57.40;;;;;;5067943;28;45274;-63
2023/05/09 08:15:28;;;;;;;1.02;1.00;;;20.40;57.50;;;;;;5067499;28;46372;-65
2023/05/09 08:17:55;;;;;;;1.40;1.10;;;20.40;57.50;;;;;;5067554;28;45333;-64
2023/05/09 08:20:23;;;;;;;1.30;1.20;;;20.40;57.60;;;;;;5055232;28;45425;-64
2023/05/09 08:22:51;;;;;;;1.30;1.20;;;20.40;57.50;;;;;;5047252;28;45520;-63
2023/05/09 08:25:19;;;;;;;1.20;1.10;;;20.40;57.50;;;;;;5047025;28;45305;-63
2023/05/09 08:27:46;;;;;;;1.30;1.20;;;20.50;57.60;;;;;;5046757;28;45326;-64
2023/05/09 08:30:14;;;;;;;1.30;1.20;;;20.50;57.40;;;;;;5047344;28;45382;-64
2023/05/09 08:32:41;;;;;;;1.45;1.35;;;20.50;57.30;;;;;;5039388;28;45266;-64
2023/05/09 08:35:08;;;;;;;1.45;1.35;;;20.50;57.30;;;;;;5047043;28;45291;-63
2023/05/09 08:37:35;;;;;;;1.00;1.00;;;20.50;57.10;;;;;;5047010;28;45301;-64
2023/05/09 08:40:06;;;;;;;1.10;1.00;;;20.60;57.30;;;;;;5047173;28;45405;-63
2023/05/09 08:42:33;;;;;;;1.40;1.20;;;20.60;57.20;;;;;;5047146;28;45309;-63
2023/05/09 08:45:00;;;;;;;1.85;1.10;;;20.60;57.20;;;;;;5046876;28;45270;-65
2023/05/09 08:47:28;;;;;;;1.25;1.15;;;20.60;57.30;;;;;;5046818;28;45342;-64
2023/05/09 08:49:54;;;;;;;1.17;1.10;;;20.60;57.50;;;;;;5046951;28;45227;-63
2023/05/09 08:52:21;;;;;;;1.15;1.10;;;20.70;57.40;;;;;;5047078;28;45298;-64
2023/05/09 08:54:48;;;;;;;1.35;1.17;;;20.70;57.70;;;;;;5046563;28;46718;-63
2023/05/09 08:57:16;;;;;;;2.95;1.20;;;20.70;57.70;;;;;;5047117;28;45329;-64
2023/05/09 08:59:44;;;;;;;1.10;1.10;;;20.80;57.80;;;;;;5046756;28;45306;-63
2023/05/09 09:02:13;;;;;;;2.47;1.15;;;20.80;57.70;;;;;;5046810;28;45461;-63
2023/05/09 09:04:40;;;;;;;2.00;1.20;;;20.80;57.80;;;;;;5046214;28;46354;-63
2023/05/09 09:07:07;;;;;;;1.33;1.23;;;20.80;57.70;;;;;;5046549;28;45464;-62
2023/05/09 09:09:34;;;;;;;1.40;1.30;;;20.80;57.70;;;;;;5046493;28;45503;-63
2023/05/09 09:12:02;;;;;;;1.42;1.13;;;20.80;57.50;;;;;;5046531;28;45323;-63
2023/05/09 09:14:30;;;;;;;1.98;1.30;;;20.90;57.50;;;;;;5046271;28;45271;-64
2023/05/09 09:16:57;;;;;;;1.30;1.20;;;20.90;57.60;;;;;;5046383;28;45329;-63
2023/05/09 09:19:26;;;;;;;1.02;1.02;;;20.90;57.60;;;;;;5046518;28;45547;-64
2023/05/09 09:21:53;;;;;;;1.00;1.00;;;20.90;57.60;;;;;;5046521;28;45308;-63
2023/05/09 09:24:22;;;;;;;1.55;1.15;;;21.00;57.60;;;;;;5046051;28;46687;-63
2023/05/09 09:26:50;;;;;;;3.03;1.30;;;21.00;57.50;;;;;;5045999;28;45290;-63
2023/05/09 09:29:17;;;;;;;1.40;1.30;;;21.00;57.50;;;;;;5046444;28;45191;-62
2023/05/09 09:31:46;;;;;;;1.30;1.20;;;21.00;57.50;;;;;;5046311;28;45420;-64
2023/05/09 09:34:13;;;;;;;1.98;1.40;;;21.10;57.60;;;;;;5045354;28;46379;-64
2023/05/09 09:36:40;;;;;;;1.33;1.23;;;21.10;58.20;;;;;;5045935;28;45329;-64
2023/05/09 09:39:08;;;;;;;1.50;1.40;;;21.10;57.60;;;;;;5046269;28;45372;-65
2023/05/09 09:41:35;;;;;;;1.30;1.20;;;21.10;57.60;;;;;;5059439;28;45304;-65
2023/05/09 09:44:07;;;;;;;1.45;1.35;;;21.10;57.50;;;;;;5064050;28;45278;-64
2023/05/09 09:46:41;;;;;;;2.33;1.30;;;21.20;57.70;;;;;;5064463;28;45411;-65
2023/05/09 09:49:10;;;;;;;1.45;1.23;;;21.20;57.60;;;;;;5063206;28;45301;-65
2023/05/09 09:51:37;;;;;;;3.35;1.40;;;21.20;57.90;;;;;;5064918;28;45401;-65
2023/05/09 09:54:06;;;;;;;1.80;1.33;;;21.20;57.80;;;;;;5064128;28;45848;-64
2023/05/09 09:56:40;;;;;;;1.85;1.45;;;21.30;57.90;;;;;;5064413;28;45342;-65
2023/05/09 09:59:11;;;;;;;1.45;1.35;;;21.30;58.00;;;;;;5063330;28;45391;-65
2023/05/09 10:01:55;;;;;;;1.40;1.30;;;21.30;57.90;;;;;;5065760;28;45541;-65
2023/05/09 10:04:24;;;;;;;1.25;1.20;;;21.40;57.80;;;;;;5065769;28;46421;-65
2023/05/09 10:06:54;;;;;;;2.00;1.50;;;21.40;57.70;;;;;;5065751;28;45362;-65
2023/05/09 10:09:22;;;;;;;1.75;1.40;;;21.40;57.70;;;;;;5065956;28;45246;-64
2023/05/09 10:11:49;;;;;;;1.38;1.27;;;21.40;57.70;;;;;;5065918;28;45356;-65
2023/05/09 10:14:16;;;;;;;1.50;1.40;;;21.50;57.70;;;;;;5065702;28;46674;-64
2023/05/09 10:16:43;;;;;;;1.55;1.35;;;21.50;57.70;;;;;;5065873;28;45305;-64
2023/05/09 10:19:10;;;;;;;1.20;1.10;;;21.50;57.60;;;;;;5065956;28;45294;-64
2023/05/09 10:21:38;;;;;;;1.65;1.40;;;21.50;57.60;;;;;;5065807;28;45312;-64
2023/05/09 10:24:06;;;;;;;1.65;1.55;;;21.60;57.60;;;;;;5065453;28;45680;-64
2023/05/09 10:26:32;;;;;;;1.20;1.10;;;21.60;57.60;;;;;;5065360;28;45498;-64
2023/05/09 10:28:59;;;;;;;1.33;1.23;;;21.60;57.60;;;;;;5065358;28;45270;-64
2023/05/09 10:31:27;;;;;;;1.42;1.33;;;21.60;57.60;;;;;;5065704;28;45409;-65
2023/05/09 10:33:54;;;;;;;1.75;1.40;;;21.70;57.60;;;;;;5065367;28;45377;-65
2023/05/09 10:36:22;;;;;;;1.60;1.50;;;21.70;57.50;;;;;;5065293;28;45404;-66
2023/05/09 10:38:51;;;;;;;2.28;1.55;;;21.70;57.60;;;;;;5065545;28;45270;-66
2023/05/09 10:41:18;;;;;;;1.40;1.30;;;21.70;57.40;;;;;;5065593;28;45369;-66
2023/05/09 10:43:45;;;;;;;2.55;1.40;;;21.80;57.40;;;;;;5065249;28;45741;-65
2023/05/09 10:46:12;;;;;;;1.73;1.63;;;21.80;57.40;;;;;;5065223;28;45242;-66
2023/05/09 10:48:39;;;;;;;1.73;1.58;;;21.80;57.40;;;;;;5069016;28;45321;-67
2023/05/09 10:51:06;;;;;;;1.88;1.50;;;21.90;57.50;;;;;;5068908;28;45345;-67
2023/05/09 10:53:43;;;;;;;1.50;1.40;;;21.90;57.40;;;;;;5068469;28;45519;-67
2023/05/09 10:56:22;;;;;;;1.60;1.50;;;21.90;57.40;;;;;;5068603;28;45354;-67
2023/05/09 10:58:48;;;;;;;1.73;1.60;;;22.00;57.50;;;;;;5068592;28;45266;-66
2023/05/09 11:01:15;;;;;;;3.58;2.08;;;22.00;57.50;;;;;;5068636;28;44757;-67
2023/05/09 11:03:55;;;;;;;1.55;1.45;;;22.10;57.50;;;;;;5068290;28;47309;-67
2023/05/09 11:06:45;;;;;;;1.88;1.63;;;22.10;57.40;;;;;;5068219;28;45366;-65
2023/05/09 11:09:34;;;;;;;1.80;1.50;;;22.10;57.40;;;;;;5068413;28;45339;-66
2023/05/09 11:12:09;;;;;;;2.10;1.45;;;22.20;57.30;;;;;;5068483;28;45637;-64
2023/05/09 11:14:40;;;;;;;2.90;1.67;;;22.20;57.20;;;;;;5068256;28;45524;-65
2023/05/09 11:17:07;;;;;;;3.92;1.63;;;22.20;57.40;;;;;;5068251;28;45338;-65
2023/05/09 11:19:38;;;;;;;1.50;1.40;;;22.20;57.20;;;;;;5068236;28;45398;-63
2023/05/09 11:22:12;;;;;;;1.60;1.50;;;22.30;57.40;;;;;;5068480;28;45405;-64
2023/05/09 11:24:39;;;;;;;1.98;1.50;;;22.30;57.50;;;;;;5067979;28;45277;-63
2023/05/09 11:27:14;;;;;;;1.80;1.65;;;22.30;57.40;;;;;;5067878;28;45313;-63
2023/05/09 11:29:45;;;;;;;2.30;2.10;;;22.40;57.40;;;;;;5068303;28;45310;-63
2023/05/09 11:32:13;;;;;;;1.70;1.60;;;22.40;57.50;;;;;;5068423;28;45506;-63
2023/05/09 11:34:42;;;;;;;2.83;1.73;;;22.40;57.50;;;;;;5067887;28;45277;-63
2023/05/09 11:37:09;;;;;;;2.03;1.83;;;22.50;57.50;;;;;;5067757;28;45325;-65
2023/05/09 11:39:36;;;;;;;2.00;1.67;;;22.50;57.40;;;;;;5068007;28;45500;-64
2023/05/09 11:42:04;;;;;;;2.17;1.98;;;22.60;57.40;;;;;;5067581;28;45507;-63
2023/05/09 11:44:33;;;;;;;3.40;1.90;;;22.60;57.40;;;;;;5067891;28;45485;-64
2023/05/09 11:46:59;;;;;;;3.90;1.65;;;22.60;57.40;;;;;;5067378;28;45337;-63
2023/05/09 11:49:26;;;;;;;1.75;1.65;;;22.70;57.40;;;;;;5067862;28;45436;-63
2023/05/09 11:51:53;;;;;;;2.50;1.65;;;22.70;57.30;;;;;;5067928;28;45266;-64
2023/05/09 11:54:23;;;;;;;2.00;1.80;;;22.70;57.20;;;;;;5067644;28;46692;-65
2023/05/09 11:56:50;;;;;;;2.20;1.80;;;22.70;57.40;;;;;;5067612;28;45376;-63
2023/05/09 11:59:17;;;;;;;3.30;1.73;;;22.70;57.20;;;;;;5067391;28;45401;-63
2023/05/09 12:01:45;;;;;;;2.63;2.00;;;22.80;56.90;;;;;;5067987;28;45536;-63
2023/05/09 12:04:12;;;;;;;2.53;1.92;;;22.80;57.20;;;;;;5067762;28;46553;-62
2023/05/09 12:06:39;;;;;;;2.28;2.08;;;22.80;56.90;;;;;;5067588;28;45340;-63
2023/05/09 12:09:07;;;;;;;2.05;1.70;;;22.80;56.90;;;;;;5067793;28;45420;-64
2023/05/09 12:11:36;;;;;;;3.17;1.92;;;22.90;56.90;;;;;;5068061;28;45309;-63
2023/05/09 12:14:03;;;;;;;1.90;1.67;;;22.90;56.90;;;;;;5067500;28;46545;-64
2023/05/09 12:16:30;;;;;;;1.70;1.60;;;22.90;56.80;;;;;;5067497;28;45425;-64
2023/05/09 12:18:58;;;;;;;2.95;1.90;;;23.00;56.90;;;;;;5067650;28;45396;-63
2023/05/09 12:21:25;;;;;;;2.63;2.00;;;23.00;56.80;;;;;;5067694;28;45405;-63
2023/05/09 12:23:51;;;;;;;1.88;1.77;;;23.00;56.80;;;;;;5067406;28;45286;-64
2023/05/09 12:26:18;;;;;;;1.75;1.65;;;23.00;56.80;;;;;;5067239;28;45268;-64
2023/05/09 12:28:45;;;;;;;2.13;1.83;;;23.00;57.40;;;;;;5067102;28;45451;-64
2023/05/09 12:31:12;;;;;;;2.58;1.73;;;23.10;56.70;;;;;;5067506;28;45325;-64
2023/05/09 12:33:39;;;;;;;1.88;1.77;;;23.10;56.60;;;;;;5067574;28;45270;-64
2023/05/09 12:36:09;;;;;;;2.83;2.05;;;23.20;56.50;;;;;;5067161;28;45328;-64
2023/05/09 12:38:36;;;;;;;1.80;1.70;;;23.20;56.40;;;;;;5067369;28;45325;-61
2023/05/09 12:41:04;;;;;;;1.92;1.73;;;23.20;56.40;;;;;;5067262;28;45353;-62
2023/05/09 12:43:31;;;;;;;3.65;1.80;;;23.30;56.20;;;;;;5067102;28;45329;-63
2023/05/09 12:45:59;;;;;;;2.40;2.20;;;23.30;56.00;;;;;;5067017;28;45316;-63
2023/05/09 12:48:25;;;;;;;2.05;1.60;;;23.30;56.10;;;;;;5067317;28;45467;-65
2023/05/09 12:50:52;;;;;;;1.80;1.70;;;23.40;56.10;;;;;;5067054;28;45502;-64